sensor_id;sensor_type;location;lat;lon;timestamp;P1;durP1;ratioP1;P2;durP2;ratioP2
69748;SDS011;57019;52.354;6.584;2022-08-18T00:02:02;16.73;;;9.67;;
69748;SDS011;57019;52.354;6.584;2022-08-18T00:04:31;17.03;;;9.57;;
69748;SDS011;57019;52.354;6.584;2022-08-18T00:06:58;17.58;;;10.05;;
69748;SDS011;57019;52.354;6.584;2022-08-18T00:09:23;18.07;;;10.67;;
69748;SDS011;57019;52.354;6.584;2022-08-18T00:11:49;16.90;;;10.00;;
69748;SDS011;57019;52.354;6.584;2022-08-18T00:14:15;17.92;;;9.93;;
69748;SDS011;57019;52.354;6.584;2022-08-18T00:16:43;17.83;;;10.60;;
69748;SDS011;57019;52.354;6.584;2022-08-18T00:19:08;18.23;;;10.40;;
69748;SDS011;57019;52.354;6.584;2022-08-18T00:21:33;16.80;;;9.52;;
69748;SDS011;57019;52.354;6.584;2022-08-18T00:23:59;15.93;;;9.77;;
69748;SDS011;57019;52.354;6.584;2022-08-18T00:26:24;16.93;;;9.93;;
69748;SDS011;57019;52.354;6.584;2022-08-18T00:28:50;16.23;;;9.37;;
69748;SDS011;57019;52.354;6.584;2022-08-18T00:31:15;16.47;;;9.40;;
69748;SDS011;57019;52.354;6.584;2022-08-18T00:33:40;16.38;;;9.18;;
69748;SDS011;57019;52.354;6.584;2022-08-18T00:36:07;16.73;;;9.70;;
69748;SDS011;57019;52.354;6.584;2022-08-18T00:38:41;17.65;;;9.05;;
69748;SDS011;57019;52.354;6.584;2022-08-18T00:41:07;17.53;;;9.53;;
69748;SDS011;57019;52.354;6.584;2022-08-18T00:43:43;17.73;;;9.80;;
69748;SDS011;57019;52.354;6.584;2022-08-18T00:46:15;16.70;;;9.33;;
69748;SDS011;57019;52.354;6.584;2022-08-18T00:48:52;16.40;;;9.50;;
69748;SDS011;57019;52.354;6.584;2022-08-18T00:56:46;14.47;;;9.40;;
69748;SDS011;57019;52.354;6.584;2022-08-18T01:02:03;17.27;;;8.95;;
69748;SDS011;57019;52.354;6.584;2022-08-18T01:04:57;17.75;;;9.60;;
69748;SDS011;57019;52.354;6.584;2022-08-18T01:07:24;15.63;;;9.50;;
69748;SDS011;57019;52.354;6.584;2022-08-18T01:09:54;17.23;;;9.50;;
69748;SDS011;57019;52.354;6.584;2022-08-18T01:12:23;16.88;;;9.45;;
69748;SDS011;57019;52.354;6.584;2022-08-18T01:14:49;17.80;;;9.40;;
69748;SDS011;57019;52.354;6.584;2022-08-18T01:17:14;16.90;;;9.17;;
69748;SDS011;57019;52.354;6.584;2022-08-18T01:19:58;15.90;;;9.15;;
69748;SDS011;57019;52.354;6.584;2022-08-18T01:25:13;16.20;;;9.18;;
69748;SDS011;57019;52.354;6.584;2022-08-18T01:28:03;16.90;;;9.00;;
69748;SDS011;57019;52.354;6.584;2022-08-18T01:30:30;21.90;;;9.48;;
69748;SDS011;57019;52.354;6.584;2022-08-18T01:32:56;16.17;;;8.98;;
69748;SDS011;57019;52.354;6.584;2022-08-18T01:35:23;17.02;;;9.13;;
69748;SDS011;57019;52.354;6.584;2022-08-18T01:37:50;19.20;;;9.88;;
69748;SDS011;57019;52.354;6.584;2022-08-18T01:40:17;16.10;;;9.37;;
69748;SDS011;57019;52.354;6.584;2022-08-18T01:42:43;19.60;;;9.65;;
69748;SDS011;57019;52.354;6.584;2022-08-18T01:45:12;17.27;;;10.00;;
69748;SDS011;57019;52.354;6.584;2022-08-18T01:47:39;17.85;;;9.48;;
69748;SDS011;57019;52.354;6.584;2022-08-18T01:50:05;17.27;;;9.90;;
69748;SDS011;57019;52.354;6.584;2022-08-18T01:52:32;17.30;;;9.13;;
69748;SDS011;57019;52.354;6.584;2022-08-18T01:54:59;16.83;;;9.27;;
69748;SDS011;57019;52.354;6.584;2022-08-18T01:57:25;17.90;;;9.10;;
69748;SDS011;57019;52.354;6.584;2022-08-18T01:59:51;18.50;;;9.70;;
69748;SDS011;57019;52.354;6.584;2022-08-18T02:02:17;17.40;;;9.40;;
69748;SDS011;57019;52.354;6.584;2022-08-18T02:04:49;20.47;;;9.87;;
69748;SDS011;57019;52.354;6.584;2022-08-18T02:07:17;19.05;;;9.65;;
69748;SDS011;57019;52.354;6.584;2022-08-18T02:09:42;17.30;;;9.40;;
69748;SDS011;57019;52.354;6.584;2022-08-18T02:12:08;19.30;;;9.77;;
69748;SDS011;57019;52.354;6.584;2022-08-18T02:14:34;18.30;;;9.50;;
69748;SDS011;57019;52.354;6.584;2022-08-18T02:17:00;18.50;;;9.52;;
69748;SDS011;57019;52.354;6.584;2022-08-18T02:19:26;18.08;;;9.40;;
69748;SDS011;57019;52.354;6.584;2022-08-18T02:21:52;16.23;;;8.93;;
69748;SDS011;57019;52.354;6.584;2022-08-18T02:24:17;19.03;;;9.87;;
69748;SDS011;57019;52.354;6.584;2022-08-18T02:26:43;18.20;;;9.23;;
69748;SDS011;57019;52.354;6.584;2022-08-18T02:29:08;17.57;;;9.10;;
69748;SDS011;57019;52.354;6.584;2022-08-18T02:31:34;15.83;;;9.37;;
69748;SDS011;57019;52.354;6.584;2022-08-18T02:33:59;17.08;;;9.57;;
69748;SDS011;57019;52.354;6.584;2022-08-18T02:36:25;17.63;;;9.27;;
69748;SDS011;57019;52.354;6.584;2022-08-18T02:38:50;18.63;;;9.80;;
69748;SDS011;57019;52.354;6.584;2022-08-18T02:41:16;18.50;;;9.30;;
69748;SDS011;57019;52.354;6.584;2022-08-18T02:43:41;15.57;;;8.77;;
69748;SDS011;57019;52.354;6.584;2022-08-18T02:46:07;16.00;;;8.73;;
69748;SDS011;57019;52.354;6.584;2022-08-18T02:48:33;15.57;;;8.80;;
69748;SDS011;57019;52.354;6.584;2022-08-18T02:51:03;15.27;;;8.90;;
69748;SDS011;57019;52.354;6.584;2022-08-18T02:53:29;16.77;;;8.43;;
69748;SDS011;57019;52.354;6.584;2022-08-18T02:55:55;15.98;;;8.77;;
69748;SDS011;57019;52.354;6.584;2022-08-18T02:59:05;17.02;;;8.77;;
69748;SDS011;57019;52.354;6.584;2022-08-18T03:01:33;16.65;;;8.02;;
69748;SDS011;57019;52.354;6.584;2022-08-18T03:04:02;16.80;;;9.47;;
69748;SDS011;57019;52.354;6.584;2022-08-18T03:06:30;17.33;;;8.95;;
69748;SDS011;57019;52.354;6.584;2022-08-18T03:08:56;16.00;;;9.13;;
69748;SDS011;57019;52.354;6.584;2022-08-18T03:11:26;20.03;;;9.63;;
69748;SDS011;57019;52.354;6.584;2022-08-18T03:13:53;16.73;;;8.52;;
69748;SDS011;57019;52.354;6.584;2022-08-18T03:16:20;15.80;;;8.55;;
69748;SDS011;57019;52.354;6.584;2022-08-18T03:18:48;19.25;;;9.40;;
69748;SDS011;57019;52.354;6.584;2022-08-18T03:21:16;17.80;;;9.30;;
69748;SDS011;57019;52.354;6.584;2022-08-18T03:23:45;17.08;;;9.02;;
69748;SDS011;57019;52.354;6.584;2022-08-18T03:26:12;17.27;;;9.15;;
69748;SDS011;57019;52.354;6.584;2022-08-18T03:28:40;17.92;;;9.50;;
69748;SDS011;57019;52.354;6.584;2022-08-18T03:31:07;20.83;;;10.02;;
69748;SDS011;57019;52.354;6.584;2022-08-18T03:33:33;21.47;;;9.20;;
69748;SDS011;57019;52.354;6.584;2022-08-18T03:36:41;18.23;;;9.02;;
69748;SDS011;57019;52.354;6.584;2022-08-18T03:38:50;19.33;;;9.65;;
69748;SDS011;57019;52.354;6.584;2022-08-18T03:41:17;19.33;;;9.80;;
69748;SDS011;57019;52.354;6.584;2022-08-18T03:43:46;20.23;;;9.77;;
69748;SDS011;57019;52.354;6.584;2022-08-18T03:46:13;19.67;;;9.68;;
69748;SDS011;57019;52.354;6.584;2022-08-18T03:48:41;19.27;;;9.88;;
69748;SDS011;57019;52.354;6.584;2022-08-18T03:51:13;19.35;;;9.77;;
69748;SDS011;57019;52.354;6.584;2022-08-18T03:53:39;20.75;;;9.98;;
69748;SDS011;57019;52.354;6.584;2022-08-18T03:56:14;20.87;;;10.00;;
69748;SDS011;57019;52.354;6.584;2022-08-18T03:58:42;21.70;;;10.07;;
69748;SDS011;57019;52.354;6.584;2022-08-18T04:01:14;20.63;;;10.07;;
69748;SDS011;57019;52.354;6.584;2022-08-18T04:03:43;20.95;;;9.60;;
69748;SDS011;57019;52.354;6.584;2022-08-18T04:06:13;19.63;;;9.68;;
69748;SDS011;57019;52.354;6.584;2022-08-18T04:08:42;18.35;;;9.18;;
69748;SDS011;57019;52.354;6.584;2022-08-18T04:11:09;20.90;;;10.20;;
69748;SDS011;57019;52.354;6.584;2022-08-18T04:13:35;22.30;;;11.02;;
69748;SDS011;57019;52.354;6.584;2022-08-18T04:16:01;21.83;;;10.30;;
69748;SDS011;57019;52.354;6.584;2022-08-18T04:18:27;24.20;;;10.90;;
69748;SDS011;57019;52.354;6.584;2022-08-18T04:20:55;23.57;;;10.83;;
69748;SDS011;57019;52.354;6.584;2022-08-18T04:23:23;24.00;;;10.85;;
69748;SDS011;57019;52.354;6.584;2022-08-18T04:25:58;24.65;;;10.85;;
69748;SDS011;57019;52.354;6.584;2022-08-18T04:28:24;23.75;;;11.20;;
69748;SDS011;57019;52.354;6.584;2022-08-18T04:30:50;23.70;;;10.40;;
69748;SDS011;57019;52.354;6.584;2022-08-18T04:33:16;21.58;;;10.27;;
69748;SDS011;57019;52.354;6.584;2022-08-18T04:35:41;26.73;;;10.93;;
69748;SDS011;57019;52.354;6.584;2022-08-18T04:38:07;22.40;;;10.80;;
69748;SDS011;57019;52.354;6.584;2022-08-18T04:40:33;20.98;;;9.88;;
69748;SDS011;57019;52.354;6.584;2022-08-18T04:43:00;21.77;;;9.73;;
69748;SDS011;57019;52.354;6.584;2022-08-18T04:45:26;22.08;;;9.85;;
69748;SDS011;57019;52.354;6.584;2022-08-18T04:47:52;19.75;;;9.38;;
69748;SDS011;57019;52.354;6.584;2022-08-18T04:50:18;20.13;;;9.47;;
69748;SDS011;57019;52.354;6.584;2022-08-18T04:52:43;20.07;;;9.40;;
69748;SDS011;57019;52.354;6.584;2022-08-18T04:55:28;17.70;;;9.00;;
69748;SDS011;57019;52.354;6.584;2022-08-18T04:57:54;22.75;;;9.27;;
69748;SDS011;57019;52.354;6.584;2022-08-18T05:00:19;17.52;;;9.30;;
69748;SDS011;57019;52.354;6.584;2022-08-18T05:02:45;15.93;;;8.57;;
69748;SDS011;57019;52.354;6.584;2022-08-18T05:05:10;18.13;;;8.70;;
69748;SDS011;57019;52.354;6.584;2022-08-18T05:07:36;17.83;;;8.27;;
69748;SDS011;57019;52.354;6.584;2022-08-18T05:10:09;16.05;;;8.25;;
69748;SDS011;57019;52.354;6.584;2022-08-18T05:12:36;17.30;;;8.35;;
69748;SDS011;57019;52.354;6.584;2022-08-18T05:15:01;17.63;;;7.73;;
69748;SDS011;57019;52.354;6.584;2022-08-18T05:17:27;17.08;;;8.40;;
69748;SDS011;57019;52.354;6.584;2022-08-18T05:19:52;17.37;;;8.27;;
69748;SDS011;57019;52.354;6.584;2022-08-18T05:22:18;16.17;;;8.00;;
69748;SDS011;57019;52.354;6.584;2022-08-18T05:24:45;16.65;;;8.00;;
69748;SDS011;57019;52.354;6.584;2022-08-18T05:27:10;14.75;;;7.82;;
69748;SDS011;57019;52.354;6.584;2022-08-18T05:29:37;17.80;;;8.57;;
69748;SDS011;57019;52.354;6.584;2022-08-18T05:32:02;16.53;;;8.23;;
69748;SDS011;57019;52.354;6.584;2022-08-18T05:34:32;16.50;;;8.02;;
69748;SDS011;57019;52.354;6.584;2022-08-18T05:37:05;18.10;;;8.27;;
69748;SDS011;57019;52.354;6.584;2022-08-18T05:39:56;16.15;;;7.30;;
69748;SDS011;57019;52.354;6.584;2022-08-18T05:42:25;18.58;;;7.57;;
69748;SDS011;57019;52.354;6.584;2022-08-18T05:44:53;17.92;;;7.93;;
69748;SDS011;57019;52.354;6.584;2022-08-18T05:47:23;18.27;;;7.70;;
69748;SDS011;57019;52.354;6.584;2022-08-18T05:49:54;20.00;;;7.70;;
69748;SDS011;57019;52.354;6.584;2022-08-18T05:52:31;15.60;;;7.43;;
69748;SDS011;57019;52.354;6.584;2022-08-18T05:55:03;17.30;;;7.63;;
69748;SDS011;57019;52.354;6.584;2022-08-18T05:57:55;18.15;;;7.30;;
69748;SDS011;57019;52.354;6.584;2022-08-18T06:00:25;18.08;;;7.68;;
69748;SDS011;57019;52.354;6.584;2022-08-18T06:02:58;18.90;;;7.23;;
69748;SDS011;57019;52.354;6.584;2022-08-18T06:05:30;16.25;;;6.82;;
69748;SDS011;57019;52.354;6.584;2022-08-18T06:08:02;16.80;;;7.38;;
69748;SDS011;57019;52.354;6.584;2022-08-18T06:10:33;14.10;;;6.85;;
69748;SDS011;57019;52.354;6.584;2022-08-18T06:13:00;19.02;;;7.28;;
69748;SDS011;57019;52.354;6.584;2022-08-18T06:18:27;17.30;;;7.18;;
69748;SDS011;57019;52.354;6.584;2022-08-18T06:32:34;13.82;;;6.20;;
69748;SDS011;57019;52.354;6.584;2022-08-18T06:41:33;14.20;;;5.35;;
69748;SDS011;57019;52.354;6.584;2022-08-18T06:49:11;12.67;;;5.40;;
69748;SDS011;57019;52.354;6.584;2022-08-18T06:51:42;14.50;;;5.30;;
69748;SDS011;57019;52.354;6.584;2022-08-18T06:56:46;14.10;;;6.20;;
69748;SDS011;57019;52.354;6.584;2022-08-18T07:01:44;10.57;;;5.57;;
69748;SDS011;57019;52.354;6.584;2022-08-18T07:04:32;14.70;;;5.70;;
69748;SDS011;57019;52.354;6.584;2022-08-18T07:07:12;11.80;;;5.25;;
69748;SDS011;57019;52.354;6.584;2022-08-18T07:09:37;12.30;;;5.18;;
69748;SDS011;57019;52.354;6.584;2022-08-18T07:12:07;13.57;;;5.10;;
69748;SDS011;57019;52.354;6.584;2022-08-18T07:14:42;13.65;;;5.40;;
69748;SDS011;57019;52.354;6.584;2022-08-18T07:17:13;14.25;;;4.93;;
69748;SDS011;57019;52.354;6.584;2022-08-18T07:19:54;11.45;;;4.40;;
69748;SDS011;57019;52.354;6.584;2022-08-18T07:22:22;10.60;;;4.40;;
69748;SDS011;57019;52.354;6.584;2022-08-18T07:24:48;10.63;;;4.65;;
69748;SDS011;57019;52.354;6.584;2022-08-18T07:27:39;11.00;;;5.15;;
69748;SDS011;57019;52.354;6.584;2022-08-18T07:35:22;11.48;;;5.97;;
69748;SDS011;57019;52.354;6.584;2022-08-18T07:38:38;13.82;;;5.80;;
69748;SDS011;57019;52.354;6.584;2022-08-18T07:40:52;13.20;;;5.70;;
69748;SDS011;57019;52.354;6.584;2022-08-18T07:43:38;15.38;;;5.63;;
69748;SDS011;57019;52.354;6.584;2022-08-18T07:46:19;10.47;;;5.17;;
69748;SDS011;57019;52.354;6.584;2022-08-18T07:48:45;14.50;;;6.00;;
69748;SDS011;57019;52.354;6.584;2022-08-18T07:51:17;11.93;;;5.40;;
69748;SDS011;57019;52.354;6.584;2022-08-18T07:59:45;14.00;;;5.72;;
69748;SDS011;57019;52.354;6.584;2022-08-18T08:02:35;11.70;;;5.28;;
69748;SDS011;57019;52.354;6.584;2022-08-18T08:08:51;12.13;;;5.00;;
69748;SDS011;57019;52.354;6.584;2022-08-18T08:16:35;11.82;;;4.28;;
69748;SDS011;57019;52.354;6.584;2022-08-18T08:22:04;8.82;;;4.60;;
69748;SDS011;57019;52.354;6.584;2022-08-18T08:24:41;7.78;;;3.58;;
69748;SDS011;57019;52.354;6.584;2022-08-18T08:30:06;8.90;;;3.63;;
69748;SDS011;57019;52.354;6.584;2022-08-18T08:32:40;9.53;;;3.40;;
69748;SDS011;57019;52.354;6.584;2022-08-18T08:35:16;7.50;;;3.50;;
69748;SDS011;57019;52.354;6.584;2022-08-18T08:38:05;9.75;;;3.17;;
69748;SDS011;57019;52.354;6.584;2022-08-18T08:40:48;8.35;;;3.30;;
69748;SDS011;57019;52.354;6.584;2022-08-18T08:43:18;8.32;;;3.13;;
69748;SDS011;57019;52.354;6.584;2022-08-18T08:48:38;8.77;;;3.10;;
69748;SDS011;57019;52.354;6.584;2022-08-18T08:54:03;7.65;;;2.67;;
69748;SDS011;57019;52.354;6.584;2022-08-18T08:56:35;8.27;;;2.67;;
69748;SDS011;57019;52.354;6.584;2022-08-18T08:59:08;8.07;;;3.03;;
69748;SDS011;57019;52.354;6.584;2022-08-18T09:08:07;7.70;;;2.80;;
69748;SDS011;57019;52.354;6.584;2022-08-18T09:24:19;7.90;;;2.80;;
69748;SDS011;57019;52.354;6.584;2022-08-18T09:26:50;8.10;;;2.60;;
69748;SDS011;57019;52.354;6.584;2022-08-18T09:29:21;9.85;;;2.75;;
69748;SDS011;57019;52.354;6.584;2022-08-18T09:40:55;8.53;;;2.80;;
69748;SDS011;57019;52.354;6.584;2022-08-18T09:51:56;6.82;;;2.80;;
69748;SDS011;57019;52.354;6.584;2022-08-18T09:55:08;8.27;;;2.90;;
69748;SDS011;57019;52.354;6.584;2022-08-18T10:01:16;7.55;;;2.88;;
69748;SDS011;57019;52.354;6.584;2022-08-18T10:06:54;8.02;;;2.67;;
69748;SDS011;57019;52.354;6.584;2022-08-18T10:10:19;6.50;;;2.80;;
69748;SDS011;57019;52.354;6.584;2022-08-18T10:21:17;7.50;;;2.55;;
69748;SDS011;57019;52.354;6.584;2022-08-18T10:28:57;7.50;;;2.67;;
69748;SDS011;57019;52.354;6.584;2022-08-18T10:31:25;6.68;;;2.40;;
69748;SDS011;57019;52.354;6.584;2022-08-18T10:39:20;7.57;;;2.40;;
69748;SDS011;57019;52.354;6.584;2022-08-18T10:44:31;7.78;;;2.50;;
69748;SDS011;57019;52.354;6.584;2022-08-18T10:47:01;6.43;;;2.40;;
69748;SDS011;57019;52.354;6.584;2022-08-18T10:49:28;6.72;;;2.58;;
69748;SDS011;57019;52.354;6.584;2022-08-18T10:58:06;6.10;;;2.60;;
69748;SDS011;57019;52.354;6.584;2022-08-18T11:00:54;6.28;;;2.38;;
69748;SDS011;57019;52.354;6.584;2022-08-18T11:07:19;7.20;;;2.37;;
69748;SDS011;57019;52.354;6.584;2022-08-18T11:09:52;6.75;;;2.50;;
69748;SDS011;57019;52.354;6.584;2022-08-18T11:24:02;6.78;;;2.30;;
69748;SDS011;57019;52.354;6.584;2022-08-18T11:26:31;5.65;;;2.20;;
69748;SDS011;57019;52.354;6.584;2022-08-18T11:29:19;6.22;;;2.20;;
69748;SDS011;57019;52.354;6.584;2022-08-18T11:31:45;5.45;;;2.03;;
69748;SDS011;57019;52.354;6.584;2022-08-18T11:34:14;6.83;;;2.20;;
69748;SDS011;57019;52.354;6.584;2022-08-18T11:36:53;6.65;;;2.28;;
69748;SDS011;57019;52.354;6.584;2022-08-18T11:39:21;6.55;;;2.30;;
69748;SDS011;57019;52.354;6.584;2022-08-18T11:41:47;6.57;;;1.95;;
69748;SDS011;57019;52.354;6.584;2022-08-18T11:44:16;6.40;;;2.47;;
69748;SDS011;57019;52.354;6.584;2022-08-18T11:46:44;6.53;;;2.40;;
69748;SDS011;57019;52.354;6.584;2022-08-18T11:49:17;6.23;;;2.30;;
69748;SDS011;57019;52.354;6.584;2022-08-18T11:51:56;6.05;;;2.00;;
69748;SDS011;57019;52.354;6.584;2022-08-18T11:54:43;6.88;;;2.45;;
69748;SDS011;57019;52.354;6.584;2022-08-18T12:03:04;5.10;;;1.93;;
69748;SDS011;57019;52.354;6.584;2022-08-18T12:05:53;6.05;;;1.90;;
69748;SDS011;57019;52.354;6.584;2022-08-18T12:08:34;5.75;;;1.88;;
69748;SDS011;57019;52.354;6.584;2022-08-18T12:11:19;23.73;;;4.85;;
69748;SDS011;57019;52.354;6.584;2022-08-18T12:13:47;21.83;;;5.35;;
69748;SDS011;57019;52.354;6.584;2022-08-18T12:16:39;24.40;;;4.90;;
69748;SDS011;57019;52.354;6.584;2022-08-18T12:19:07;19.20;;;4.55;;
69748;SDS011;57019;52.354;6.584;2022-08-18T12:21:48;20.90;;;5.22;;
69748;SDS011;57019;52.354;6.584;2022-08-18T12:24:20;15.93;;;4.13;;
69748;SDS011;57019;52.354;6.584;2022-08-18T12:26:48;14.85;;;3.97;;
69748;SDS011;57019;52.354;6.584;2022-08-18T12:29:14;15.13;;;3.90;;
69748;SDS011;57019;52.354;6.584;2022-08-18T12:31:41;12.90;;;3.50;;
69748;SDS011;57019;52.354;6.584;2022-08-18T12:34:07;17.07;;;4.03;;
69748;SDS011;57019;52.354;6.584;2022-08-18T12:36:33;16.38;;;4.03;;
69748;SDS011;57019;52.354;6.584;2022-08-18T12:38:59;14.73;;;4.07;;
69748;SDS011;57019;52.354;6.584;2022-08-18T12:41:24;11.60;;;3.22;;
69748;SDS011;57019;52.354;6.584;2022-08-18T12:43:50;45.47;;;14.40;;
69748;SDS011;57019;52.354;6.584;2022-08-18T12:46:17;29.67;;;10.20;;
69748;SDS011;57019;52.354;6.584;2022-08-18T12:48:43;29.37;;;9.37;;
69748;SDS011;57019;52.354;6.584;2022-08-18T12:51:08;18.17;;;6.20;;
69748;SDS011;57019;52.354;6.584;2022-08-18T12:53:34;16.92;;;5.50;;
69748;SDS011;57019;52.354;6.584;2022-08-18T12:56:00;16.43;;;5.13;;
69748;SDS011;57019;52.354;6.584;2022-08-18T12:58:26;18.20;;;5.22;;
69748;SDS011;57019;52.354;6.584;2022-08-18T13:00:52;16.70;;;4.67;;
69748;SDS011;57019;52.354;6.584;2022-08-18T13:03:17;13.63;;;3.87;;
69748;SDS011;57019;52.354;6.584;2022-08-18T13:05:43;9.87;;;3.50;;
69748;SDS011;57019;52.354;6.584;2022-08-18T13:08:12;9.98;;;3.35;;
69748;SDS011;57019;52.354;6.584;2022-08-18T13:10:43;8.85;;;3.35;;
69748;SDS011;57019;52.354;6.584;2022-08-18T13:13:15;8.77;;;3.00;;
69748;SDS011;57019;52.354;6.584;2022-08-18T13:15:42;9.93;;;2.97;;
69748;SDS011;57019;52.354;6.584;2022-08-18T13:18:09;8.18;;;3.05;;
69748;SDS011;57019;52.354;6.584;2022-08-18T13:20:35;7.82;;;2.90;;
69748;SDS011;57019;52.354;6.584;2022-08-18T13:23:18;7.13;;;2.50;;
69748;SDS011;57019;52.354;6.584;2022-08-18T13:25:44;7.03;;;2.50;;
69748;SDS011;57019;52.354;6.584;2022-08-18T13:28:09;8.00;;;2.90;;
69748;SDS011;57019;52.354;6.584;2022-08-18T13:30:35;7.87;;;2.50;;
69748;SDS011;57019;52.354;6.584;2022-08-18T13:33:00;6.30;;;2.23;;
69748;SDS011;57019;52.354;6.584;2022-08-18T13:35:27;6.13;;;2.28;;
69748;SDS011;57019;52.354;6.584;2022-08-18T13:37:53;6.65;;;2.50;;
69748;SDS011;57019;52.354;6.584;2022-08-18T13:40:20;7.45;;;2.40;;
69748;SDS011;57019;52.354;6.584;2022-08-18T13:42:46;6.13;;;2.45;;
69748;SDS011;57019;52.354;6.584;2022-08-18T13:45:12;5.80;;;2.33;;
69748;SDS011;57019;52.354;6.584;2022-08-18T13:47:39;6.78;;;2.10;;
69748;SDS011;57019;52.354;6.584;2022-08-18T13:50:05;6.63;;;2.33;;
69748;SDS011;57019;52.354;6.584;2022-08-18T13:52:31;6.33;;;1.93;;
69748;SDS011;57019;52.354;6.584;2022-08-18T13:54:56;6.55;;;2.00;;
69748;SDS011;57019;52.354;6.584;2022-08-18T13:57:22;5.60;;;2.00;;
69748;SDS011;57019;52.354;6.584;2022-08-18T13:59:47;5.40;;;1.90;;
69748;SDS011;57019;52.354;6.584;2022-08-18T14:02:12;6.60;;;2.13;;
69748;SDS011;57019;52.354;6.584;2022-08-18T14:04:38;8.67;;;2.10;;
69748;SDS011;57019;52.354;6.584;2022-08-18T14:07:04;9.88;;;2.40;;
69748;SDS011;57019;52.354;6.584;2022-08-18T14:09:33;5.78;;;2.10;;
69748;SDS011;57019;52.354;6.584;2022-08-18T14:11:59;8.10;;;2.50;;
69748;SDS011;57019;52.354;6.584;2022-08-18T14:14:27;6.03;;;2.50;;
69748;SDS011;57019;52.354;6.584;2022-08-18T14:16:52;6.53;;;2.57;;
69748;SDS011;57019;52.354;6.584;2022-08-18T14:19:17;6.78;;;2.63;;
69748;SDS011;57019;52.354;6.584;2022-08-18T14:22:01;6.37;;;2.47;;
69748;SDS011;57019;52.354;6.584;2022-08-18T14:24:45;6.13;;;2.45;;
69748;SDS011;57019;52.354;6.584;2022-08-18T14:27:34;7.07;;;2.53;;
69748;SDS011;57019;52.354;6.584;2022-08-18T14:30:04;5.68;;;2.40;;
69748;SDS011;57019;52.354;6.584;2022-08-18T14:32:32;6.18;;;2.50;;
69748;SDS011;57019;52.354;6.584;2022-08-18T14:34:58;6.77;;;2.50;;
69748;SDS011;57019;52.354;6.584;2022-08-18T14:37:25;6.43;;;2.40;;
69748;SDS011;57019;52.354;6.584;2022-08-18T14:39:51;6.72;;;2.42;;
69748;SDS011;57019;52.354;6.584;2022-08-18T14:42:16;8.93;;;2.60;;
69748;SDS011;57019;52.354;6.584;2022-08-18T14:44:45;6.63;;;2.40;;
69748;SDS011;57019;52.354;6.584;2022-08-18T14:47:12;5.85;;;2.35;;
69748;SDS011;57019;52.354;6.584;2022-08-18T14:49:37;5.93;;;2.23;;
69748;SDS011;57019;52.354;6.584;2022-08-18T14:52:04;6.90;;;2.40;;
69748;SDS011;57019;52.354;6.584;2022-08-18T14:54:31;5.68;;;2.42;;
69748;SDS011;57019;52.354;6.584;2022-08-18T14:56:57;6.80;;;2.20;;
69748;SDS011;57019;52.354;6.584;2022-08-18T14:59:25;6.90;;;2.20;;
69748;SDS011;57019;52.354;6.584;2022-08-18T15:01:52;7.75;;;2.20;;
69748;SDS011;57019;52.354;6.584;2022-08-18T15:04:18;8.57;;;2.27;;
69748;SDS011;57019;52.354;6.584;2022-08-18T15:06:43;6.93;;;2.47;;
69748;SDS011;57019;52.354;6.584;2022-08-18T15:09:08;6.67;;;2.30;;
69748;SDS011;57019;52.354;6.584;2022-08-18T15:11:33;5.67;;;2.20;;
69748;SDS011;57019;52.354;6.584;2022-08-18T15:13:59;5.83;;;2.13;;
69748;SDS011;57019;52.354;6.584;2022-08-18T15:16:25;5.47;;;2.07;;
69748;SDS011;57019;52.354;6.584;2022-08-18T15:18:51;7.93;;;2.00;;
69748;SDS011;57019;52.354;6.584;2022-08-18T15:21:17;6.07;;;2.00;;
69748;SDS011;57019;52.354;6.584;2022-08-18T15:24:01;6.82;;;2.20;;
69748;SDS011;57019;52.354;6.584;2022-08-18T15:26:45;8.88;;;2.25;;
69748;SDS011;57019;52.354;6.584;2022-08-18T15:29:11;8.75;;;2.30;;
69748;SDS011;57019;52.354;6.584;2022-08-18T15:31:37;5.23;;;2.07;;
69748;SDS011;57019;52.354;6.584;2022-08-18T15:34:03;7.47;;;2.27;;
69748;SDS011;57019;52.354;6.584;2022-08-18T15:36:29;6.20;;;2.10;;
69748;SDS011;57019;52.354;6.584;2022-08-18T15:39:00;6.70;;;2.20;;
69748;SDS011;57019;52.354;6.584;2022-08-18T15:41:38;6.78;;;2.05;;
69748;SDS011;57019;52.354;6.584;2022-08-18T15:44:05;5.60;;;2.00;;
69748;SDS011;57019;52.354;6.584;2022-08-18T15:46:34;5.67;;;2.00;;
69748;SDS011;57019;52.354;6.584;2022-08-18T15:49:01;5.88;;;2.15;;
69748;SDS011;57019;52.354;6.584;2022-08-18T15:51:29;5.43;;;2.00;;
69748;SDS011;57019;52.354;6.584;2022-08-18T15:53:55;6.10;;;2.00;;
69748;SDS011;57019;52.354;6.584;2022-08-18T15:56:22;5.13;;;1.90;;
69748;SDS011;57019;52.354;6.584;2022-08-18T15:58:49;5.50;;;1.90;;
69748;SDS011;57019;52.354;6.584;2022-08-18T16:01:15;5.10;;;1.90;;
69748;SDS011;57019;52.354;6.584;2022-08-18T16:03:43;6.07;;;2.03;;
69748;SDS011;57019;52.354;6.584;2022-08-18T16:06:16;6.68;;;2.08;;
69748;SDS011;57019;52.354;6.584;2022-08-18T16:08:43;5.67;;;2.00;;
69748;SDS011;57019;52.354;6.584;2022-08-18T16:11:10;6.25;;;2.40;;
69748;SDS011;57019;52.354;6.584;2022-08-18T16:13:37;5.68;;;2.03;;
69748;SDS011;57019;52.354;6.584;2022-08-18T16:16:08;5.75;;;2.20;;
69748;SDS011;57019;52.354;6.584;2022-08-18T16:18:39;5.72;;;2.10;;
69748;SDS011;57019;52.354;6.584;2022-08-18T16:21:09;6.43;;;2.13;;
69748;SDS011;57019;52.354;6.584;2022-08-18T16:23:40;7.75;;;2.13;;
69748;SDS011;57019;52.354;6.584;2022-08-18T16:26:08;5.40;;;1.98;;
69748;SDS011;57019;52.354;6.584;2022-08-18T16:28:34;5.57;;;2.30;;
69748;SDS011;57019;52.354;6.584;2022-08-18T16:31:00;5.67;;;2.10;;
69748;SDS011;57019;52.354;6.584;2022-08-18T16:33:26;5.85;;;2.20;;
69748;SDS011;57019;52.354;6.584;2022-08-18T16:35:51;5.90;;;2.50;;
69748;SDS011;57019;52.354;6.584;2022-08-18T16:38:17;7.83;;;2.30;;
69748;SDS011;57019;52.354;6.584;2022-08-18T16:40:44;7.30;;;2.50;;
69748;SDS011;57019;52.354;6.584;2022-08-18T16:43:09;5.73;;;2.10;;
69748;SDS011;57019;52.354;6.584;2022-08-18T16:45:37;5.70;;;2.35;;
69748;SDS011;57019;52.354;6.584;2022-08-18T16:48:04;5.78;;;2.20;;
69748;SDS011;57019;52.354;6.584;2022-08-18T16:50:32;5.60;;;2.23;;
69748;SDS011;57019;52.354;6.584;2022-08-18T16:52:58;5.72;;;2.33;;
69748;SDS011;57019;52.354;6.584;2022-08-18T16:55:24;5.83;;;2.30;;
69748;SDS011;57019;52.354;6.584;2022-08-18T16:57:49;6.07;;;2.10;;
69748;SDS011;57019;52.354;6.584;2022-08-18T17:00:33;7.07;;;2.30;;
69748;SDS011;57019;52.354;6.584;2022-08-18T17:03:18;7.22;;;2.30;;
69748;SDS011;57019;52.354;6.584;2022-08-18T17:06:03;6.90;;;2.40;;
69748;SDS011;57019;52.354;6.584;2022-08-18T17:08:31;5.50;;;2.03;;
69748;SDS011;57019;52.354;6.584;2022-08-18T17:10:59;5.95;;;2.30;;
69748;SDS011;57019;52.354;6.584;2022-08-18T17:13:29;6.63;;;2.30;;
69748;SDS011;57019;52.354;6.584;2022-08-18T17:15:55;5.70;;;2.20;;
69748;SDS011;57019;52.354;6.584;2022-08-18T17:18:20;5.90;;;2.50;;
69748;SDS011;57019;52.354;6.584;2022-08-18T17:20:46;6.18;;;2.20;;
69748;SDS011;57019;52.354;6.584;2022-08-18T17:23:12;6.63;;;2.30;;
69748;SDS011;57019;52.354;6.584;2022-08-18T17:25:38;7.68;;;2.30;;
69748;SDS011;57019;52.354;6.584;2022-08-18T17:28:04;5.82;;;2.03;;
69748;SDS011;57019;52.354;6.584;2022-08-18T17:30:31;6.25;;;2.10;;
69748;SDS011;57019;52.354;6.584;2022-08-18T17:33:01;5.30;;;2.10;;
69748;SDS011;57019;52.354;6.584;2022-08-18T17:35:36;5.97;;;2.28;;
69748;SDS011;57019;52.354;6.584;2022-08-18T17:40:37;6.57;;;2.40;;
69748;SDS011;57019;52.354;6.584;2022-08-18T17:43:08;7.47;;;2.30;;
69748;SDS011;57019;52.354;6.584;2022-08-18T17:45:36;5.50;;;2.07;;
69748;SDS011;57019;52.354;6.584;2022-08-18T17:48:06;5.88;;;2.28;;